Mays Lick, Kentucky
Current Conditions -  °F | °C
As of 4:35 AM on Thursday 23 Oct 2014 (Local Time) from KFGX Reporting Station
Overcast Overcast  
Wind Chill: 47°   Ceiling: 2800
Heat Index: 47°   Visibility: 10mi
Dew Point: 40°   Wind: 0mph
Humidity: 76%   Direction: NA
Pressure: 30.25"   Gusts: NA
Location:  38.4934°N, 83.7754°W
Report Text: KFGX 230835Z AUTO 00000KT 10SM OVC028 09/05 A3025 RMK AO2 T00850045
Loading
Personal Weather Stations






























Interactive Weather Map
Tropical Storm Tracking
New forecast layout! Learn more

10-Day Weather Forecast

Advertisements
Track Severe Weather on mobile